createdAt,value
2018-12-31T00:00:29.791Z,100566.91
2018-12-31T00:02:56.485Z,100575.62
2018-12-31T00:05:23.326Z,100575.13
2018-12-31T00:07:50.072Z,100574.53
2018-12-31T00:10:16.826Z,100573.01
2018-12-31T00:12:43.804Z,100571.06
2018-12-31T00:15:10.499Z,100569.53
2018-12-31T00:17:37.355Z,100561.17
2018-12-31T00:20:04.444Z,100572.10
2018-12-31T00:22:31.644Z,100560.67
2018-12-31T00:24:58.687Z,100565.72
2018-12-31T00:27:25.431Z,100557.23
2018-12-31T00:29:52.163Z,100555.92
2018-12-31T00:32:19.704Z,100557.66
2018-12-31T00:34:46.462Z,100558.76
2018-12-31T00:37:13.188Z,100555.91
2018-12-31T00:39:39.949Z,100565.22
2018-12-31T00:42:06.686Z,100568.50
2018-12-31T00:44:33.741Z,100570.32
2018-12-31T00:47:00.524Z,100570.22
2018-12-31T00:49:29.424Z,100561.12
2018-12-31T00:51:56.152Z,100563.46
2018-12-31T00:54:23.301Z,100563.75
2018-12-31T00:56:52.281Z,100575.41
2018-12-31T00:59:19.142Z,100567.59
2018-12-31T01:01:45.913Z,100562.64
2018-12-31T01:04:12.679Z,100574.08
2018-12-31T01:06:39.388Z,100568.11
2018-12-31T01:09:06.437Z,100574.98
2018-12-31T01:11:33.269Z,100568.61
2018-12-31T01:14:00.292Z,100574.16
2018-12-31T01:16:27.026Z,100580.02
2018-12-31T01:18:53.754Z,100570.43
2018-12-31T01:21:20.519Z,100574.16
2018-12-31T01:23:47.279Z,100578.81
2018-12-31T01:26:14.426Z,100572.67
2018-12-31T01:28:43.755Z,100580.03
2018-12-31T01:31:10.505Z,100582.58
2018-12-31T01:33:39.254Z,100582.58
2018-12-31T01:36:05.968Z,100583.97
2018-12-31T01:38:32.720Z,100578.11
2018-12-31T01:40:59.663Z,100580.66
2018-12-31T01:43:26.360Z,100586.31
2018-12-31T01:45:53.072Z,100584.61
2018-12-31T01:48:19.805Z,100579.24
2018-12-31T01:50:47.283Z,100585.00
2018-12-31T01:53:13.999Z,100586.31
2018-12-31T01:55:40.703Z,100581.27
2018-12-31T01:58:07.452Z,100579.42
2018-12-31T02:00:34.197Z,100584.39
2018-12-31T02:03:01.525Z,100577.32
2018-12-31T02:05:28.231Z,100569.21
2018-12-31T02:07:55.031Z,100569.70
2018-12-31T02:10:22.015Z,100570.81
2018-12-31T02:12:48.734Z,100572.66
2018-12-31T02:15:15.438Z,100574.05
2018-12-31T02:17:42.530Z,100569.92
2018-12-31T02:20:09.709Z,100565.98
2018-12-31T02:22:36.434Z,100563.23
2018-12-31T02:25:03.127Z,100564.74
2018-12-31T02:27:30.294Z,100555.42
2018-12-31T02:29:57.004Z,100558.34
2018-12-31T02:32:23.725Z,100562.11
2018-12-31T02:34:52.319Z,100567.27
2018-12-31T02:37:21.978Z,100561.08
2018-12-31T02:39:48.678Z,100560.97
2018-12-31T02:42:15.362Z,100556.30
2018-12-31T02:44:42.454Z,100550.75
2018-12-31T02:47:09.512Z,100555.91
2018-12-31T02:49:36.224Z,100554.19
2018-12-31T02:52:03.160Z,100547.38
2018-12-31T02:54:29.871Z,100553.52
2018-12-31T02:56:56.555Z,100552.23
2018-12-31T02:59:23.584Z,100554.59
2018-12-31T03:01:50.307Z,100545.77
2018-12-31T03:04:16.984Z,100553.89
2018-12-31T03:06:43.891Z,100550.55
2018-12-31T03:09:10.595Z,100553.08
2018-12-31T03:11:37.649Z,100556.05
2018-12-31T03:14:06.824Z,100559.90
2018-12-31T03:16:33.530Z,100557.48
2018-12-31T03:19:00.260Z,100553.09
2018-12-31T03:21:26.995Z,100553.90
2018-12-31T03:23:53.738Z,100544.16
2018-12-31T03:26:20.505Z,100551.82
2018-12-31T03:28:47.657Z,100543.83
2018-12-31T03:31:14.371Z,100539.63
2018-12-31T03:33:42.799Z,100544.91
2018-12-31T03:36:09.505Z,100537.99
2018-12-31T03:38:36.180Z,100530.55
2018-12-31T03:41:03.144Z,100528.48
2018-12-31T03:43:29.830Z,100527.98
2018-12-31T03:45:56.525Z,100522.52
2018-12-31T03:48:23.246Z,100527.63
2018-12-31T03:50:49.987Z,100525.63
2018-12-31T03:53:17.171Z,100526.48
2018-12-31T03:55:43.858Z,100531.92
2018-12-31T03:58:10.561Z,100535.81
2018-12-31T04:00:37.385Z,100532.14
2018-12-31T04:03:04.073Z,100534.77
2018-12-31T04:05:30.805Z,100534.07
2018-12-31T04:07:57.503Z,100539.75
2018-12-31T04:10:24.197Z,100548.34
2018-12-31T04:12:50.907Z,100539.20
2018-12-31T04:15:19.556Z,100539.55
2018-12-31T04:17:46.235Z,100544.32
2018-12-31T04:20:12.944Z,100536.44
2018-12-31T04:22:42.177Z,100538.97
2018-12-31T04:25:08.884Z,100537.55
2018-12-31T04:27:35.565Z,100542.29
2018-12-31T04:30:02.264Z,100533.70
2018-12-31T04:32:28.992Z,100542.09
2018-12-31T04:34:56.090Z,100539.45
2018-12-31T04:37:22.828Z,100536.41
2018-12-31T04:39:49.514Z,100524.45
2018-12-31T04:42:16.234Z,100529.22
2018-12-31T04:44:42.925Z,100521.23
2018-12-31T04:47:09.656Z,100528.70
2018-12-31T04:49:36.344Z,100528.78
2018-12-31T04:52:03.095Z,100529.92
2018-12-31T04:54:29.871Z,100522.09
2018-12-31T04:56:56.670Z,100525.77
2018-12-31T04:59:23.642Z,100519.90
2018-12-31T05:01:50.332Z,100517.57
2018-12-31T05:04:17.022Z,100520.03
2018-12-31T05:06:43.748Z,100520.64
2018-12-31T05:09:10.437Z,100525.30
2018-12-31T05:11:37.158Z,100520.04
2018-12-31T05:14:03.830Z,100521.42
2018-12-31T05:16:30.548Z,100524.38
2018-12-31T05:18:57.256Z,100526.00
2018-12-31T05:21:24.434Z,100532.14
2018-12-31T05:23:53.037Z,100526.17
2018-12-31T05:26:20.130Z,100534.38
2018-12-31T05:28:46.860Z,100533.64
2018-12-31T05:31:13.540Z,100528.55
2018-12-31T05:33:40.251Z,100529.09
2018-12-31T05:36:06.954Z,100535.26
2018-12-31T05:38:33.670Z,100536.77
2018-12-31T05:41:00.375Z,100530.27
2018-12-31T05:43:27.116Z,100541.54
2018-12-31T05:45:53.803Z,100539.31
2018-12-31T05:48:20.501Z,100546.81
2018-12-31T05:50:47.297Z,100545.47
2018-12-31T05:53:14.712Z,100543.64
2018-12-31T05:55:42.931Z,100542.22
2018-12-31T05:58:09.629Z,100548.99
2018-12-31T06:00:36.643Z,100545.14
2018-12-31T06:03:03.713Z,100547.25
2018-12-31T06:05:30.419Z,100551.22
2018-12-31T06:07:57.108Z,100552.34
2018-12-31T06:10:23.836Z,100559.25
2018-12-31T06:12:50.632Z,100558.42
2018-12-31T06:15:17.352Z,100568.67
2018-12-31T06:17:44.051Z,100569.69
2018-12-31T06:20:10.763Z,100575.78
2018-12-31T06:22:37.445Z,100573.41
2018-12-31T06:25:04.122Z,100586.75
2018-12-31T06:27:30.836Z,100582.90
2018-12-31T06:29:57.541Z,100582.40
2018-12-31T06:32:24.259Z,100589.06
2018-12-31T06:34:50.986Z,100588.19
2018-12-31T06:37:19.104Z,100588.91
2018-12-31T06:39:45.785Z,100587.72
2018-12-31T06:42:12.542Z,100592.05
2018-12-31T06:44:39.359Z,100582.84
2018-12-31T06:47:06.050Z,100593.97
2018-12-31T06:49:32.917Z,100589.06
2018-12-31T06:51:59.590Z,100594.86
2018-12-31T06:54:28.913Z,100598.71
2018-12-31T06:56:56.082Z,100594.93
2018-12-31T06:59:22.812Z,100587.45
2018-12-31T07:01:51.431Z,100594.05
2018-12-31T07:04:18.101Z,100585.77
2018-12-31T07:06:44.792Z,100590.01
2018-12-31T07:09:11.836Z,100593.03
2018-12-31T07:11:38.562Z,100596.80
2018-12-31T07:14:05.265Z,100602.17
2018-12-31T07:16:33.901Z,100609.48
2018-12-31T07:19:00.619Z,100610.69
2018-12-31T07:21:27.436Z,100615.12
2018-12-31T07:23:54.156Z,100618.75
2018-12-31T07:26:22.049Z,100618.95
2018-12-31T07:28:51.526Z,100623.20
2018-12-31T07:31:18.197Z,100619.05
2018-12-31T07:33:44.916Z,100627.16
2018-12-31T07:36:11.630Z,100624.42
2018-12-31T07:38:38.317Z,100630.69
2018-12-31T07:41:05.163Z,100626.62
2018-12-31T07:43:32.015Z,100634.84
2018-12-31T07:45:58.709Z,100634.72
2018-12-31T07:48:25.450Z,100636.75
2018-12-31T07:50:52.266Z,100635.95
2018-12-31T07:53:18.982Z,100633.73
2018-12-31T07:55:45.654Z,100642.95
2018-12-31T07:58:12.874Z,100645.14
2018-12-31T08:00:39.560Z,100640.98
2018-12-31T08:03:08.796Z,100649.47
2018-12-31T08:05:37.578Z,100650.17
2018-12-31T08:08:05.374Z,100648.26
2018-12-31T08:10:32.113Z,100655.67
2018-12-31T08:12:58.815Z,100660.42
2018-12-31T08:15:25.536Z,100664.86
2018-12-31T08:17:55.382Z,100671.23
2018-12-31T08:20:22.149Z,100663.65
2018-12-31T08:22:48.881Z,100674.45
2018-12-31T08:25:15.570Z,100667.20
2018-12-31T08:27:42.290Z,100667.36
2018-12-31T08:30:09.092Z,100670.25
2018-12-31T08:32:35.781Z,100664.51
2018-12-31T08:35:02.914Z,100665.59
2018-12-31T08:37:31.037Z,100671.36
2018-12-31T08:39:57.810Z,100675.02
2018-12-31T08:42:24.498Z,100679.47
2018-12-31T08:44:53.484Z,100673.48
2018-12-31T08:47:20.168Z,100674.30
2018-12-31T08:49:46.902Z,100679.14
2018-12-31T08:52:13.624Z,100679.16
2018-12-31T08:54:42.442Z,100674.00
2018-12-31T08:57:09.237Z,100681.00
2018-12-31T08:59:36.762Z,100677.44
2018-12-31T09:02:03.475Z,100670.95
2018-12-31T09:04:30.170Z,100679.23
2018-12-31T09:06:56.877Z,100686.77
2018-12-31T09:09:25.049Z,100690.49
2018-12-31T09:11:51.709Z,100685.11
2018-12-31T09:14:21.214Z,100686.55
2018-12-31T09:16:47.908Z,100690.39
2018-12-31T09:19:14.638Z,100683.20
2018-12-31T09:21:41.331Z,100683.91
2018-12-31T09:24:08.091Z,100682.59
2018-12-31T09:26:34.756Z,100684.31
2018-12-31T09:29:01.429Z,100688.30
2018-12-31T09:31:28.187Z,100679.06
2018-12-31T09:33:55.928Z,100679.30
2018-12-31T09:36:23.026Z,100681.67
2018-12-31T09:38:49.732Z,100684.59
2018-12-31T09:41:16.905Z,100687.56
2018-12-31T09:43:43.672Z,100685.63
2018-12-31T09:46:10.499Z,100673.12
2018-12-31T09:48:39.056Z,100672.45
2018-12-31T09:51:05.992Z,100682.19
2018-12-31T09:53:32.807Z,100683.08
2018-12-31T09:55:59.561Z,100672.33
2018-12-31T09:58:26.332Z,100676.05
2018-12-31T10:00:53.369Z,100674.81
2018-12-31T10:03:20.430Z,100670.95
2018-12-31T10:05:47.240Z,100672.89
2018-12-31T10:08:13.982Z,100667.41
2018-12-31T10:10:40.737Z,100668.74
2018-12-31T10:13:07.426Z,100667.52
2018-12-31T10:15:34.129Z,100669.86
2018-12-31T10:18:00.950Z,100673.80
2018-12-31T10:20:27.793Z,100678.56
2018-12-31T10:22:54.773Z,100675.55
2018-12-31T10:25:21.560Z,100675.85
2018-12-31T10:27:48.299Z,100669.41
2018-12-31T10:30:15.192Z,100671.73
2018-12-31T10:32:41.857Z,100673.77
2018-12-31T10:35:08.611Z,100662.34
2018-12-31T10:37:35.354Z,100665.12
2018-12-31T10:40:02.118Z,100663.30
2018-12-31T10:42:28.859Z,100664.31
2018-12-31T10:44:55.572Z,100660.56
2018-12-31T10:47:22.332Z,100659.44
2018-12-31T10:49:49.091Z,100659.16
2018-12-31T10:52:15.875Z,100658.49
2018-12-31T10:54:42.614Z,100650.36
2018-12-31T10:57:09.282Z,100655.97
2018-12-31T10:59:35.992Z,100649.72
2018-12-31T11:02:02.860Z,100660.14
2018-12-31T11:04:29.580Z,100655.06
2018-12-31T11:06:56.297Z,100650.09
2018-12-31T11:09:23.115Z,100639.22
2018-12-31T11:11:50.027Z,100635.94
2018-12-31T11:14:16.777Z,100632.80
2018-12-31T11:16:43.475Z,100630.47
2018-12-31T11:19:10.222Z,100621.94
2018-12-31T11:21:37.191Z,100626.39
2018-12-31T11:24:03.993Z,100625.08
2018-12-31T11:26:30.994Z,100618.95
2018-12-31T11:28:57.913Z,100621.44
2018-12-31T11:31:30.287Z,100621.53
2018-12-31T11:33:53.274Z,100614.81
2018-12-31T11:36:20.066Z,100610.97
2018-12-31T11:38:47.007Z,100615.87
2018-12-31T11:41:15.445Z,100609.23
2018-12-31T11:43:42.193Z,100612.33
2018-12-31T11:46:08.957Z,100616.56
2018-12-31T11:48:35.695Z,100613.20
2018-12-31T11:51:02.998Z,100608.84
2018-12-31T11:53:29.870Z,100601.15
2018-12-31T11:55:56.834Z,100602.42
2018-12-31T11:58:23.546Z,100584.19
2018-12-31T12:00:50.598Z,100587.64
2018-12-31T12:03:17.471Z,100601.28
2018-12-31T12:05:44.174Z,100591.45
2018-12-31T12:08:11.058Z,100595.91
2018-12-31T12:10:38.104Z,100595.56
2018-12-31T12:13:04.937Z,100592.59
2018-12-31T12:15:31.681Z,100585.23
2018-12-31T12:17:58.689Z,100582.81
2018-12-31T12:20:25.441Z,100579.95
2018-12-31T12:22:52.247Z,100576.95
2018-12-31T12:25:18.946Z,100576.86
2018-12-31T12:27:45.730Z,100575.23
2018-12-31T12:30:12.549Z,100576.40
2018-12-31T12:32:39.744Z,100570.27
2018-12-31T12:35:06.446Z,100573.77
2018-12-31T12:37:33.183Z,100564.83
2018-12-31T12:40:00.266Z,100562.63
2018-12-31T12:42:27.158Z,100564.12
2018-12-31T12:44:53.914Z,100572.81
2018-12-31T12:47:21.248Z,100568.17
2018-12-31T12:49:49.188Z,100567.08
2018-12-31T12:52:16.064Z,100573.63
2018-12-31T12:54:42.899Z,100564.72
2018-12-31T12:57:10.027Z,100573.76
2018-12-31T12:59:36.754Z,100571.63
2018-12-31T13:02:03.517Z,100565.71
2018-12-31T13:04:30.629Z,100566.13
2018-12-31T13:06:57.479Z,100569.49
2018-12-31T13:09:26.197Z,100570.50
2018-12-31T13:11:53.005Z,100570.22
2018-12-31T13:14:22.663Z,100570.36
2018-12-31T13:16:49.382Z,100569.91
2018-12-31T13:19:16.155Z,100568.63
2018-12-31T13:21:43.286Z,100567.80
2018-12-31T13:24:10.139Z,100570.44
2018-12-31T13:26:43.549Z,100569.80
2018-12-31T13:29:05.831Z,100571.31
2018-12-31T13:31:33.201Z,100566.34
2018-12-31T13:33:59.971Z,100568.90
2018-12-31T13:36:27.068Z,100565.91
2018-12-31T13:38:53.818Z,100570.84
2018-12-31T13:41:20.614Z,100567.26
2018-12-31T13:43:47.339Z,100565.13
2018-12-31T13:46:14.089Z,100565.80
2018-12-31T13:48:41.215Z,100584.36
2018-12-31T13:51:08.011Z,100562.67
2018-12-31T13:53:34.885Z,100562.67
2018-12-31T13:56:04.678Z,100560.03
2018-12-31T13:58:31.414Z,100558.77
2018-12-31T14:00:58.137Z,100564.39
2018-12-31T14:03:24.993Z,100564.77
2018-12-31T14:05:51.906Z,100571.03
2018-12-31T14:08:18.640Z,100563.48
2018-12-31T14:10:48.971Z,100567.86
2018-12-31T14:13:15.709Z,100581.14
2018-12-31T14:15:42.438Z,100573.58
2018-12-31T14:18:09.177Z,100572.35
2018-12-31T14:20:35.928Z,100578.05
2018-12-31T14:23:02.945Z,100579.03
2018-12-31T14:25:29.858Z,100587.64
2018-12-31T14:27:58.228Z,100589.50
2018-12-31T14:30:24.967Z,100588.14
2018-12-31T14:32:52.016Z,100591.95
2018-12-31T14:35:20.134Z,100593.55
2018-12-31T14:37:48.718Z,100591.82
2018-12-31T14:40:15.541Z,100596.78
2018-12-31T14:42:42.282Z,100592.95
2018-12-31T14:45:09.043Z,100584.75
2018-12-31T14:47:35.775Z,100590.63
2018-12-31T14:50:03.045Z,100592.83
2018-12-31T14:52:30.228Z,100595.78
2018-12-31T14:54:56.933Z,100595.78
2018-12-31T14:57:24.058Z,100587.13
2018-12-31T14:59:53.060Z,100595.00
2018-12-31T15:02:19.769Z,100596.01
2018-12-31T15:04:46.493Z,100599.82
2018-12-31T15:07:13.421Z,100597.52
2018-12-31T15:09:40.124Z,100597.42
2018-12-31T15:12:09.625Z,100601.92
2018-12-31T15:14:36.553Z,100599.65
2018-12-31T15:17:04.642Z,100602.46
2018-12-31T15:19:31.591Z,100546.50
2018-12-31T15:21:58.733Z,100604.59
2018-12-31T15:24:25.577Z,100607.52
2018-12-31T15:26:52.614Z,100605.33
2018-12-31T15:29:19.363Z,100592.45
2018-12-31T15:31:46.110Z,100596.82
2018-12-31T15:34:14.758Z,100601.91
2018-12-31T15:36:41.754Z,100602.19
2018-12-31T15:39:08.543Z,100601.14
2018-12-31T15:41:35.240Z,100603.83
2018-12-31T15:44:02.072Z,100606.28
2018-12-31T15:46:30.107Z,100598.88
2018-12-31T15:48:57.670Z,100613.02
2018-12-31T15:51:24.648Z,100610.52
2018-12-31T15:53:51.465Z,100619.30
2018-12-31T15:56:19.959Z,100612.02
2018-12-31T15:58:46.706Z,100616.25
2018-12-31T16:01:13.970Z,100611.78
2018-12-31T16:03:40.817Z,100614.38
2018-12-31T16:06:07.946Z,100616.42
2018-12-31T16:08:35.303Z,100613.20
2018-12-31T16:11:03.269Z,100447.95
2018-12-31T16:13:30.039Z,100618.55
2018-12-31T16:15:56.873Z,100615.38
2018-12-31T16:18:23.750Z,100620.66
2018-12-31T16:20:50.659Z,100658.41
2018-12-31T16:23:17.382Z,100624.61
2018-12-31T16:25:44.369Z,100618.42
2018-12-31T16:28:12.911Z,100622.29
2018-12-31T16:30:41.509Z,100620.88
2018-12-31T16:33:08.396Z,100620.47
2018-12-31T16:35:35.069Z,100620.66
2018-12-31T16:38:01.812Z,100613.41
2018-12-31T16:40:28.514Z,100620.16
2018-12-31T16:42:55.292Z,100617.20
2018-12-31T16:45:22.032Z,100622.60
2018-12-31T16:47:50.909Z,100619.69
2018-12-31T16:50:21.457Z,100621.83
2018-12-31T16:52:48.186Z,100620.33
2018-12-31T16:55:15.088Z,100616.75
2018-12-31T16:57:41.948Z,100618.29
2018-12-31T17:00:11.200Z,100615.66
2018-12-31T17:02:37.970Z,100616.37
2018-12-31T17:05:05.007Z,100619.33
2018-12-31T17:07:31.947Z,100620.64
2018-12-31T17:09:58.770Z,100620.11
2018-12-31T17:12:25.626Z,100614.23
2018-12-31T17:14:52.432Z,100635.87
2018-12-31T17:17:19.527Z,100617.09
2018-12-31T17:19:46.734Z,100616.09
2018-12-31T17:22:13.474Z,100611.23
2018-12-31T17:24:40.183Z,100619.64
2018-12-31T17:27:07.302Z,100619.86
2018-12-31T17:29:34.664Z,100618.23
2018-12-31T17:32:01.437Z,100625.64
2018-12-31T17:34:28.136Z,100619.27
2018-12-31T17:36:55.079Z,100623.13
2018-12-31T17:39:21.892Z,100622.16
2018-12-31T17:41:48.913Z,100621.84
2018-12-31T17:44:16.463Z,100612.99
2018-12-31T17:46:43.632Z,100624.07
2018-12-31T17:49:10.758Z,100615.72
2018-12-31T17:51:37.565Z,100624.04
2018-12-31T17:54:04.287Z,100626.45
2018-12-31T17:59:30.827Z,100626.58
2018-12-31T18:01:57.847Z,100632.67
2018-12-31T18:04:25.502Z,100629.41
2018-12-31T18:06:53.696Z,100623.50
2018-12-31T18:09:20.426Z,100623.56
2018-12-31T18:11:49.429Z,100630.37
2018-12-31T18:14:16.327Z,100632.79
2018-12-31T18:16:43.043Z,100630.88
2018-12-31T18:19:09.857Z,100640.48
2018-12-31T18:21:37.312Z,100642.61
2018-12-31T18:24:05.573Z,100644.97
2018-12-31T18:26:32.530Z,100638.51
2018-12-31T18:28:59.276Z,100641.05
2018-12-31T18:31:27.015Z,100651.38
2018-12-31T18:33:53.711Z,100645.75
2018-12-31T18:36:21.013Z,100653.52
2018-12-31T18:38:47.720Z,100650.69
2018-12-31T18:41:14.416Z,100648.45
2018-12-31T18:43:43.488Z,100647.64
2018-12-31T18:46:10.276Z,100652.48
2018-12-31T18:48:37.290Z,100651.38
2018-12-31T18:51:04.943Z,100654.33
2018-12-31T18:53:31.646Z,100642.74
2018-12-31T18:55:58.397Z,100648.52
2018-12-31T18:58:25.231Z,100651.28
2018-12-31T19:00:51.923Z,100647.95
2018-12-31T19:03:20.877Z,100649.71
2018-12-31T19:05:47.617Z,100648.20
2018-12-31T19:08:14.317Z,100655.58
2018-12-31T19:10:41.053Z,100661.98
2018-12-31T19:13:07.866Z,100665.53
2018-12-31T19:15:34.608Z,100662.17
2018-12-31T19:18:04.147Z,100666.72
2018-12-31T19:20:32.760Z,100666.59
2018-12-31T19:22:59.524Z,100663.48
2018-12-31T19:25:26.268Z,100660.45
2018-12-31T19:27:53.073Z,100663.02
2018-12-31T19:30:19.770Z,100656.23
2018-12-31T19:32:46.582Z,100653.38
2018-12-31T19:35:13.501Z,100645.34
2018-12-31T19:37:40.214Z,100651.84
2018-12-31T19:40:06.951Z,100657.02
2018-12-31T19:42:33.931Z,100652.25
2018-12-31T19:45:02.650Z,100658.97
2018-12-31T19:47:29.357Z,100649.84
2018-12-31T19:49:56.402Z,100648.17
2018-12-31T19:52:23.854Z,100645.95
2018-12-31T19:54:50.656Z,100647.45
2018-12-31T19:57:17.486Z,100650.41
2018-12-31T19:59:44.177Z,100640.64
2018-12-31T20:02:11.033Z,100639.32
2018-12-31T20:04:37.762Z,100637.00
2018-12-31T20:07:04.601Z,100640.36
2018-12-31T20:09:31.368Z,100633.86
2018-12-31T20:11:58.226Z,100627.77
2018-12-31T20:14:25.087Z,100626.05
2018-12-31T20:16:51.843Z,100626.23
2018-12-31T20:19:18.971Z,100627.17
2018-12-31T20:21:45.942Z,100621.09
2018-12-31T20:24:14.638Z,100625.27
2018-12-31T20:26:41.885Z,100615.22
2018-12-31T20:29:08.865Z,100623.00
2018-12-31T20:31:35.528Z,100624.09
2018-12-31T20:34:03.034Z,100626.33
2018-12-31T20:36:29.784Z,100627.64
2018-12-31T20:38:57.950Z,100612.33
2018-12-31T20:41:24.624Z,100614.68
2018-12-31T20:43:51.732Z,100617.77
2018-12-31T20:46:20.386Z,100617.77
2018-12-31T20:48:47.384Z,100614.28
2018-12-31T20:51:14.568Z,100650.41
2018-12-31T20:53:41.522Z,100609.00
2018-12-31T20:56:08.274Z,100601.62
2018-12-31T20:58:35.782Z,100608.94
2018-12-31T21:01:02.637Z,100604.45
2018-12-31T21:03:29.350Z,100603.58
2018-12-31T21:05:59.601Z,100601.47
2018-12-31T21:08:26.644Z,100601.25
2018-12-31T21:10:53.349Z,100597.20
2018-12-31T21:13:20.077Z,100601.98
2018-12-31T21:15:46.869Z,100595.52
2018-12-31T21:18:13.558Z,100602.61
2018-12-31T21:20:40.714Z,100608.91
2018-12-31T21:23:07.396Z,100597.96
2018-12-31T21:25:34.084Z,100603.83
2018-12-31T21:28:00.809Z,100607.00
2018-12-31T21:30:27.495Z,100608.78
2018-12-31T21:32:54.261Z,100602.48
2018-12-31T21:35:21.103Z,100605.65
2018-12-31T21:37:47.891Z,100609.60
2018-12-31T21:40:14.614Z,100599.00
2018-12-31T21:42:41.565Z,100602.63
2018-12-31T21:45:09.837Z,100601.22
2018-12-31T21:47:37.979Z,100605.80
2018-12-31T21:50:05.075Z,100606.69
2018-12-31T21:52:33.983Z,100610.11
2018-12-31T21:55:01.023Z,100611.55
2018-12-31T21:57:30.473Z,100608.59
2018-12-31T21:59:57.240Z,100606.19
2018-12-31T22:02:23.914Z,100610.02
2018-12-31T22:04:51.259Z,100604.05
2018-12-31T22:07:17.993Z,100605.71
2018-12-31T22:09:44.699Z,100605.48
2018-12-31T22:12:11.396Z,100608.50
2018-12-31T22:14:38.104Z,100605.37
2018-12-31T22:17:04.960Z,100603.36
2018-12-31T22:19:31.626Z,100601.16
2018-12-31T22:21:58.338Z,100602.38
2018-12-31T22:24:25.059Z,100599.91
2018-12-31T22:26:51.839Z,100600.53
2018-12-31T22:29:18.956Z,100591.00
2018-12-31T22:31:46.046Z,100586.63
2018-12-31T22:34:12.854Z,100593.28
2018-12-31T22:36:40.108Z,100591.19
2018-12-31T22:39:07.142Z,100592.69
2018-12-31T22:41:33.890Z,100590.37
2018-12-31T22:44:00.958Z,100581.42
2018-12-31T22:46:28.479Z,100574.77
2018-12-31T22:48:55.251Z,100572.70
2018-12-31T22:51:22.285Z,100573.42
2018-12-31T22:53:49.231Z,100570.79
2018-12-31T22:56:16.299Z,100580.73
2018-12-31T22:58:43.217Z,100576.97
2018-12-31T23:01:10.190Z,100585.50
2018-12-31T23:03:37.108Z,100579.41
2018-12-31T23:06:05.511Z,100577.78
2018-12-31T23:08:32.755Z,100584.19
2018-12-31T23:11:00.200Z,100582.64
2018-12-31T23:13:32.341Z,100576.30
2018-12-31T23:15:59.316Z,100586.53
2018-12-31T23:18:27.012Z,100588.04
2018-12-31T23:20:55.401Z,100592.59
2018-12-31T23:23:23.580Z,100581.70
2018-12-31T23:25:50.625Z,100590.93
2018-12-31T23:28:17.833Z,100589.52
2018-12-31T23:30:44.968Z,100595.70
2018-12-31T23:33:12.154Z,100585.22
2018-12-31T23:35:38.995Z,100588.70
2018-12-31T23:38:05.795Z,100577.75
2018-12-31T23:40:32.506Z,100577.25
2018-12-31T23:43:06.144Z,100573.55
2018-12-31T23:45:27.911Z,100572.05
2018-12-31T23:47:55.410Z,100567.28
2018-12-31T23:50:22.241Z,100570.88
2018-12-31T23:52:49.315Z,100571.48
2018-12-31T23:55:16.056Z,100576.03
2018-12-31T23:57:43.103Z,100576.03
